Date,TemperatureHighF,TemperatureAvgF,TemperatureLowF,DewpointHighF,DewpointAvgF,DewpointLowF,HumidityHigh,HumidityAvg,HumidityLow,PressureMaxIn,PressureMinIn,WindSpeedMaxMPH,WindSpeedAvgMPH,GustSpeedMaxMPH,PrecipitationSumIn
2013-2-1,27.8,23.3,15.6,15.0,-6.4,-19.0,64,28,19,30.31,29.77,17,2,17,0.00
2013-2-2,31.1,21.1,11.3,16.1,-3.1,-21.0,68,37,19,30.32,29.96,6,0,6,0.00
2013-2-3,35.7,26.7,16.7,22.2,15.8,6.8,78,64,43,29.96,29.77,10,0,10,0.04
2013-2-4,34.7,26.3,16.8,9.9,-1.5,-8.0,46,30,19,30.05,29.87,12,1,12,0.00
2013-2-5,37.2,32.4,28.5,23.5,21.4,18.6,76,64,55,29.89,29.80,0,0,0,0.00
2013-2-6,41.1,31.5,25.1,27.4,17.3,7.0,81,58,26,30.31,29.88,8,0,8,0.00
2013-2-7,37.0,30.7,12.3,18.8,9.1,-22.0,68,44,19,30.40,30.17,5,0,5,0.00
2013-2-8,41.1,35.9,32.3,36.9,27.7,15.6,89,73,50,30.17,29.67,10,1,10,0.20
2013-2-9,36.3,28.8,23.3,13.4,0.2,-9.0,45,30,19,30.33,29.82,13,2,13,0.00
2013-2-10,40.1,29.4,17.0,17.5,2.8,-4.0,63,35,19,30.44,30.20,0,0,0,0.00
2013-2-11,49.6,41.7,33.9,47.8,36.6,17.5,96,82,49,30.21,29.62,3,0,3,0.41
2013-2-12,51.2,41.5,32.1,36.5,20.1,5.0,83,44,19,29.93,29.73,8,1,8,0.00
2013-2-13,45.3,33.8,24.6,28.0,19.8,15.0,81,58,36,29.92,29.61,4,0,4,0.04
2013-2-14,44.0,35.0,26.7,32.2,22.6,10.5,87,63,25,29.96,29.70,6,0,6,0.20
2013-2-15,56.1,41.0,27.5,40.3,25.9,20.6,87,59,26,29.97,29.83,6,0,6,0.10
2013-2-16,37.5,33.6,29.8,31.1,23.0,6.1,85,66,36,29.95,29.76,6,0,6,0.02
2013-2-17,32.7,25.5,19.7,6.7,-5.4,-15.0,45,26,19,30.12,29.75,17,2,17,0.00
2013-2-18,38.1,26.9,15.4,12.4,-7.9,-19.0,50,21,19,30.31,30.11,9,0,9,0.00
2013-2-19,42.0,35.7,28.5,37.4,23.5,11.5,84,63,32,30.11,29.65,10,0,10,0.14
2013-2-20,35.2,29.4,21.3,12.7,-4.6,-14.0,41,22,19,30.08,29.78,14,2,14,0.00
2013-2-21,35.6,26.8,19.0,3.4,-5.0,-15.0,40,25,19,30.27,30.05,11,1,11,0.00
2013-2-22,34.5,29.6,23.7,22.4,10.9,2.9,70,46,28,30.34,30.17,5,0,5,0.00
2013-2-23,45.5,37.7,10.4,41.9,33.3,5.4,92,84,70,30.18,29.75,0,0,0,0.08
2013-2-24,51.6,40.3,28.5,47.4,22.0,0.0,96,56,19,30.04,29.73,9,1,9,0.00
2013-2-25,47.6,35.4,24.6,18.6,8.0,0.0,56,34,19,30.19,30.03,6,0,6,0.00
2013-2-26,41.1,34.9,25.1,38.8,26.2,13.7,94,71,46,30.19,29.58,9,1,9,0.53
2013-2-27,55.7,46.7,40.4,46.3,33.9,23.8,96,66,34,29.62,29.44,14,1,14,0.08
2013-2-28,50.9,42.3,36.5,30.0,19.9,5.5,66,43,19,29.65,29.55,10,1,10,0.00